Time;durP1;ratioP1;P1;durP2;ratioP2;P2;SDS_P1;SDS_P2;PMS_P1;PMS_P2;Temp;Humidity;BMP_temperature;BMP_pressure;BME280_temperature;BME280_humidity;BME280_pressure;Samples;Min_cycle;Max_cycle;Signal;HPM_P1;HPM_P2
2022/11/18 00:01:43;;;;;;;26.92;22.42;;;;;;;;;;5053892;28;20100;-67
2022/11/18 00:04:09;;;;;;;24.75;22.08;;;;;;;;;;5038527;28;20116;-65
2022/11/18 00:06:35;;;;;;;26.52;22.42;;;;;;;;;;5033998;28;20033;-66
2022/11/18 00:09:02;;;;;;;27.05;23.42;;;;;;;;;;5033857;28;20075;-66
2022/11/18 00:14:21;;;;;;;30.88;22.30;;;;;;;;;;5032861;28;20040;-67
2022/11/18 00:16:47;;;;;;;26.10;23.25;;;;;;;;;;5033425;28;20545;-67
2022/11/18 00:19:14;;;;;;;25.75;22.98;;;;;;;;;;5033383;28;20040;-67
2022/11/18 00:21:40;;;;;;;26.23;23.48;;;;;;;;;;5033395;28;20462;-67
2022/11/18 00:24:06;;;;;;;26.45;23.52;;;;;;;;;;5033368;28;20029;-66
2022/11/18 00:26:32;;;;;;;25.90;23.10;;;;;;;;;;5031642;28;20068;-66
2022/11/18 00:28:58;;;;;;;26.98;23.27;;;;;;;;;;5030550;28;20091;-67
2022/11/18 00:31:24;;;;;;;25.02;22.42;;;;;;;;;;5033079;28;20026;-67
2022/11/18 00:33:50;;;;;;;30.77;23.00;;;;;;;;;;5047791;28;20481;-67
2022/11/18 00:36:16;;;;;;;27.02;22.63;;;;;;;;;;5052809;28;20108;-67
2022/11/18 00:38:42;;;;;;;26.08;23.00;;;;;;;;;;5052935;28;20036;-66
2022/11/18 00:41:10;;;;;;;26.90;23.10;;;;;;;;;;5052729;28;20022;-66
2022/11/18 00:43:36;;;;;;;28.17;24.08;;;;;;;;;;5034869;28;20418;-66
2022/11/18 00:46:03;;;;;;;33.35;26.30;;;;;;;;;;5031257;28;20455;-66
2022/11/18 00:48:29;;;;;;;26.50;23.02;;;;;;;;;;5032786;28;20109;-66
2022/11/18 00:50:56;;;;;;;26.05;23.30;;;;;;;;;;5043914;28;20040;-67
2022/11/18 00:53:23;;;;;;;28.23;23.23;;;;;;;;;;5051564;28;20020;-66
2022/11/18 00:55:50;;;;;;;29.10;23.88;;;;;;;;;;5052513;28;20076;-66
2022/11/18 00:58:16;;;;;;;28.00;23.63;;;;;;;;;;5051023;28;20025;-65
2022/11/18 01:00:42;;;;;;;29.98;23.58;;;;;;;;;;5039723;28;20017;-66
2022/11/18 01:03:09;;;;;;;26.00;23.17;;;;;;;;;;5047185;28;20378;-65
2022/11/18 01:05:36;;;;;;;26.35;23.23;;;;;;;;;;5052212;28;20028;-66
2022/11/18 01:08:02;;;;;;;25.58;22.65;;;;;;;;;;5052163;28;20040;-66
2022/11/18 01:10:28;;;;;;;30.05;23.35;;;;;;;;;;5052137;28;20452;-66
2022/11/18 01:15:40;;;;;;;26.33;23.27;;;;;;;;;;5052188;28;20028;-66
2022/11/18 01:18:06;;;;;;;26.60;22.42;;;;;;;;;;5050459;28;20025;-66
2022/11/18 01:20:32;;;;;;;29.25;22.58;;;;;;;;;;5051899;28;20040;-67
2022/11/18 01:22:58;;;;;;;28.52;23.52;;;;;;;;;;5051501;28;20513;-66
2022/11/18 01:25:24;;;;;;;26.83;23.75;;;;;;;;;;5051253;28;20064;-66
2022/11/18 01:27:50;;;;;;;28.58;23.70;;;;;;;;;;5051791;28;20043;-65
2022/11/18 01:30:16;;;;;;;24.58;21.98;;;;;;;;;;5051886;28;20099;-66
2022/11/18 01:32:43;;;;;;;27.75;23.23;;;;;;;;;;5051427;28;20404;-68
2022/11/18 01:35:10;;;;;;;25.95;23.25;;;;;;;;;;5050937;28;20397;-67
2022/11/18 01:37:36;;;;;;;27.42;22.98;;;;;;;;;;5051446;28;20017;-67
2022/11/18 01:40:02;;;;;;;39.47;32.50;;;;;;;;;;5051233;28;20017;-66
2022/11/18 01:42:28;;;;;;;37.53;31.85;;;;;;;;;;5051584;28;20385;-66
2022/11/18 01:45:08;;;;;;;36.03;29.52;;;;;;;;;;5050844;28;20021;-65
2022/11/18 01:47:41;;;;;;;34.97;28.52;;;;;;;;;;5051457;28;20032;-66
2022/11/18 01:50:08;;;;;;;31.05;27.35;;;;;;;;;;5051457;28;20025;-66
2022/11/18 01:52:35;;;;;;;37.17;29.10;;;;;;;;;;5049611;28;20029;-67
2022/11/18 01:55:05;;;;;;;32.92;27.95;;;;;;;;;;5030817;28;20105;-67
2022/11/18 01:57:32;;;;;;;38.55;32.03;;;;;;;;;;5031531;28;20339;-67
2022/11/18 02:00:00;;;;;;;28.08;25.05;;;;;;;;;;5031798;28;20362;-67
2022/11/18 02:02:26;;;;;;;29.05;25.02;;;;;;;;;;5031361;28;20397;-67
2022/11/18 02:04:54;;;;;;;26.38;23.40;;;;;;;;;;5031743;28;20030;-67
2022/11/18 02:07:20;;;;;;;29.42;26.20;;;;;;;;;;5031734;28;20115;-66
2022/11/18 02:09:46;;;;;;;27.48;24.48;;;;;;;;;;5031874;28;20104;-67
2022/11/18 02:12:12;;;;;;;28.33;25.33;;;;;;;;;;5031850;28;20027;-66
2022/11/18 02:14:42;;;;;;;30.30;26.52;;;;;;;;;;5030082;28;20040;-66
2022/11/18 02:17:11;;;;;;;29.33;26.20;;;;;;;;;;5032220;28;20030;-67
2022/11/18 02:19:37;;;;;;;37.45;29.92;;;;;;;;;;5032519;28;20026;-67
2022/11/18 02:22:21;;;;;;;30.83;26.02;;;;;;;;;;5051783;28;20029;-67
2022/11/18 02:24:47;;;;;;;27.35;24.45;;;;;;;;;;5050740;28;20108;-66
2022/11/18 02:27:32;;;;;;;28.05;23.95;;;;;;;;;;5050427;28;20125;-67
2022/11/18 02:30:01;;;;;;;28.98;24.52;;;;;;;;;;5051887;28;20033;-66
2022/11/18 02:32:39;;;;;;;28.75;24.77;;;;;;;;;;5051889;28;20021;-67
2022/11/18 02:35:08;;;;;;;28.40;25.35;;;;;;;;;;5049555;28;20028;-67
2022/11/18 02:37:40;;;;;;;27.55;24.55;;;;;;;;;;5051506;28;20429;-67
2022/11/18 02:40:27;;;;;;;28.48;24.92;;;;;;;;;;5051803;28;20102;-67
2022/11/18 02:43:01;;;;;;;26.57;23.33;;;;;;;;;;5051799;28;20028;-66
2022/11/18 02:45:27;;;;;;;28.48;24.35;;;;;;;;;;5051532;28;20032;-67
2022/11/18 02:47:55;;;;;;;26.20;23.23;;;;;;;;;;5045089;28;20112;-67
2022/11/18 02:50:23;;;;;;;29.90;24.58;;;;;;;;;;5030337;28;20478;-67
2022/11/18 02:52:51;;;;;;;30.63;25.33;;;;;;;;;;5035083;28;20029;-66
2022/11/18 02:55:18;;;;;;;29.20;24.30;;;;;;;;;;5034781;28;20035;-67
2022/11/18 02:57:44;;;;;;;32.40;27.45;;;;;;;;;;5035483;28;20087;-67
2022/11/18 03:00:10;;;;;;;27.30;23.35;;;;;;;;;;5035402;28;20031;-67
2022/11/18 03:02:44;;;;;;;27.88;24.75;;;;;;;;;;5034174;28;20030;-67
2022/11/18 03:05:12;;;;;;;27.42;24.52;;;;;;;;;;5034694;28;20516;-67
2022/11/18 03:07:41;;;;;;;27.10;23.38;;;;;;;;;;5035217;28;20061;-67
2022/11/18 03:10:07;;;;;;;28.65;24.58;;;;;;;;;;5049526;28;20029;-67
2022/11/18 03:12:42;;;;;;;29.45;25.20;;;;;;;;;;5053878;28;20495;-67
2022/11/18 03:15:26;;;;;;;28.58;24.63;;;;;;;;;;5054244;28;20127;-67
2022/11/18 03:17:52;;;;;;;29.75;25.23;;;;;;;;;;5054902;28;20075;-65
2022/11/18 03:20:26;;;;;;;27.52;24.52;;;;;;;;;;5054922;28;20017;-66
2022/11/18 03:22:55;;;;;;;25.50;22.90;;;;;;;;;;5053689;28;20079;-67
2022/11/18 03:25:28;;;;;;;29.05;24.40;;;;;;;;;;5054172;28;20112;-68
2022/11/18 03:28:15;;;;;;;27.05;22.92;;;;;;;;;;5054576;28;20540;-67
2022/11/18 03:30:53;;;;;;;25.38;22.55;;;;;;;;;;5046256;28;20029;-67
2022/11/18 03:33:21;;;;;;;28.70;22.02;;;;;;;;;;5053936;28;20087;-66
2022/11/18 03:35:48;;;;;;;30.35;23.95;;;;;;;;;;5054737;28;20083;-65
2022/11/18 03:38:16;;;;;;;25.52;22.80;;;;;;;;;;5036329;28;20425;-66
2022/11/18 03:40:45;;;;;;;27.63;22.58;;;;;;;;;;5034720;28;20068;-67
2022/11/18 03:43:16;;;;;;;24.67;22.08;;;;;;;;;;5032580;28;20071;-66
2022/11/18 03:45:48;;;;;;;25.58;22.45;;;;;;;;;;5034441;28;20452;-66
2022/11/18 03:48:18;;;;;;;24.52;21.92;;;;;;;;;;5034385;28;20053;-66
2022/11/18 03:51:11;;;;;;;26.88;22.65;;;;;;;;;;5034439;28;20477;-67
2022/11/18 03:53:39;;;;;;;25.40;22.60;;;;;;;;;;5032577;28;20525;-67
2022/11/18 03:56:10;;;;;;;24.25;21.60;;;;;;;;;;5032892;28;20026;-67
2022/11/18 03:58:40;;;;;;;25.45;22.60;;;;;;;;;;5034035;28;20030;-66
2022/11/18 04:01:14;;;;;;;24.30;21.55;;;;;;;;;;5033959;28;20029;-67
2022/11/18 04:03:40;;;;;;;25.88;23.08;;;;;;;;;;5031884;28;20075;-67
2022/11/18 04:06:12;;;;;;;26.38;23.63;;;;;;;;;;5033737;28;20036;-67
2022/11/18 04:08:39;;;;;;;25.50;22.88;;;;;;;;;;5035159;28;20022;-67
2022/11/18 04:11:05;;;;;;;25.90;22.52;;;;;;;;;;5033990;28;20172;-66
2022/11/18 04:13:36;;;;;;;25.27;22.52;;;;;;;;;;5033313;28;20060;-67
2022/11/18 04:16:02;;;;;;;25.20;22.63;;;;;;;;;;5033846;28;20564;-68
2022/11/18 04:18:28;;;;;;;26.38;23.63;;;;;;;;;;5033730;28;20020;-67
2022/11/18 04:20:54;;;;;;;25.65;23.05;;;;;;;;;;5033650;28;20053;-66
2022/11/18 04:23:20;;;;;;;25.30;22.85;;;;;;;;;;5032841;28;20079;-67
2022/11/18 04:25:46;;;;;;;25.77;23.13;;;;;;;;;;5033657;28;20029;-66
2022/11/18 04:28:12;;;;;;;26.38;23.73;;;;;;;;;;5033336;28;20381;-66
2022/11/18 04:30:38;;;;;;;25.73;23.13;;;;;;;;;;5033563;28;20029;-67
2022/11/18 04:33:04;;;;;;;26.88;24.17;;;;;;;;;;5040998;28;20029;-66
2022/11/18 04:35:30;;;;;;;25.63;23.02;;;;;;;;;;5053483;28;20432;-67
2022/11/18 04:37:56;;;;;;;27.05;24.15;;;;;;;;;;5052183;28;20021;-67
2022/11/18 04:40:22;;;;;;;25.23;22.67;;;;;;;;;;5051498;28;20035;-67
2022/11/18 04:42:48;;;;;;;25.90;23.30;;;;;;;;;;5051987;28;20025;-67
2022/11/18 04:45:14;;;;;;;26.90;24.00;;;;;;;;;;5051290;28;20021;-67
2022/11/18 04:47:40;;;;;;;26.70;23.90;;;;;;;;;;5052755;28;20033;-67
2022/11/18 04:50:06;;;;;;;25.35;22.85;;;;;;;;;;5053092;28;20511;-67
2022/11/18 04:52:32;;;;;;;25.58;22.88;;;;;;;;;;5052864;28;20036;-67
2022/11/18 04:54:58;;;;;;;26.83;23.98;;;;;;;;;;5054775;28;20111;-68
2022/11/18 04:57:24;;;;;;;26.63;24.00;;;;;;;;;;5059851;28;20086;-67
2022/11/18 04:59:50;;;;;;;27.20;24.23;;;;;;;;;;5053367;28;20013;-67
2022/11/18 05:02:16;;;;;;;27.38;24.48;;;;;;;;;;5032704;28;20478;-66
2022/11/18 05:04:42;;;;;;;29.13;24.27;;;;;;;;;;5032134;28;20022;-67
2022/11/18 05:07:08;;;;;;;27.33;24.40;;;;;;;;;;5033088;28;20096;-66
2022/11/18 05:09:34;;;;;;;26.15;23.52;;;;;;;;;;5031426;28;20087;-67
2022/11/18 05:14:46;;;;;;;26.67;24.00;;;;;;;;;;5031224;28;20040;-65
2022/11/18 05:17:12;;;;;;;28.08;25.02;;;;;;;;;;5032584;28;20014;-66
2022/11/18 05:19:39;;;;;;;27.23;23.60;;;;;;;;;;5032493;28;20044;-65
2022/11/18 05:22:05;;;;;;;26.60;23.92;;;;;;;;;;5032586;28;20048;-66
2022/11/18 05:24:31;;;;;;;26.70;23.92;;;;;;;;;;5031949;28;20109;-69
2022/11/18 05:26:57;;;;;;;28.15;25.08;;;;;;;;;;5032516;28;20116;-67
2022/11/18 05:29:23;;;;;;;28.38;25.30;;;;;;;;;;5032749;28;20033;-68
2022/11/18 05:31:49;;;;;;;26.98;24.27;;;;;;;;;;5069826;22;20040;-66
2022/11/18 05:34:15;;;;;;;31.38;25.20;;;;;;;;;;5066709;28;20511;-64
2022/11/18 05:36:41;;;;;;;31.00;25.08;;;;;;;;;;5052524;28;20029;-65
2022/11/18 05:39:08;;;;;;;28.15;24.25;;;;;;;;;;5067861;28;20151;-67
2022/11/18 05:44:18;;;;;;;35.97;26.25;;;;;;;;;;5051393;28;20468;-65
2022/11/18 05:46:44;;;;;;;28.58;25.65;;;;;;;;;;5051109;28;20029;-65
2022/11/18 05:49:10;;;;;;;27.75;24.65;;;;;;;;;;5051189;28;20035;-65
2022/11/18 05:51:36;;;;;;;30.10;26.85;;;;;;;;;;5050968;28;20021;-67
2022/11/18 05:54:05;;;;;;;28.33;25.27;;;;;;;;;;5051440;28;20388;-65
2022/11/18 05:56:35;;;;;;;27.98;25.02;;;;;;;;;;5052102;28;20481;-65
2022/11/18 05:59:01;;;;;;;32.67;25.67;;;;;;;;;;5051791;28;20034;-64
2022/11/18 06:01:33;;;;;;;28.60;25.60;;;;;;;;;;5051385;28;20440;-65
2022/11/18 06:04:00;;;;;;;32.58;26.23;;;;;;;;;;5049642;28;20044;-65
2022/11/18 06:06:26;;;;;;;32.67;25.38;;;;;;;;;;5052007;28;20482;-65
2022/11/18 06:08:58;;;;;;;29.85;26.63;;;;;;;;;;5051851;28;20036;-64
2022/11/18 06:11:24;;;;;;;30.95;27.73;;;;;;;;;;5048460;28;20025;-64
2022/11/18 06:14:02;;;;;;;31.05;27.75;;;;;;;;;;5050835;28;20033;-64
2022/11/18 06:16:30;;;;;;;30.38;27.20;;;;;;;;;;5051943;28;20029;-64
2022/11/18 06:18:57;;;;;;;30.30;26.98;;;;;;;;;;5051219;28;20098;-65
2022/11/18 06:21:23;;;;;;;28.70;25.77;;;;;;;;;;5053199;28;20032;-65
2022/11/18 06:23:49;;;;;;;30.73;26.38;;;;;;;;;;5050062;28;20029;-66
2022/11/18 06:26:16;;;;;;;31.40;26.50;;;;;;;;;;5054679;28;20063;-65
2022/11/18 06:28:43;;;;;;;28.92;25.83;;;;;;;;;;5055645;28;20510;-64
2022/11/18 06:31:09;;;;;;;28.27;25.33;;;;;;;;;;5055591;28;20511;-65
2022/11/18 06:33:35;;;;;;;32.83;27.33;;;;;;;;;;5054985;28;20104;-63
2022/11/18 06:36:01;;;;;;;30.80;27.42;;;;;;;;;;5054163;28;20021;-65
2022/11/18 06:38:28;;;;;;;29.65;26.60;;;;;;;;;;5054157;28;20051;-64
2022/11/18 06:40:57;;;;;;;30.23;26.85;;;;;;;;;;5055248;28;20021;-65
2022/11/18 06:43:40;;;;;;;28.40;25.38;;;;;;;;;;5054602;28;20029;-63
2022/11/18 06:48:52;;;;;;;29.90;25.88;;;;;;;;;;5035934;28;20513;-62
2022/11/18 06:51:18;;;;;;;29.55;25.70;;;;;;;;;;5035482;28;20040;-64
2022/11/18 06:53:45;;;;;;;29.67;26.15;;;;;;;;;;5069343;28;20033;-65
2022/11/18 06:56:12;;;;;;;30.88;27.67;;;;;;;;;;5054223;28;20021;-65
2022/11/18 06:58:39;;;;;;;32.25;26.45;;;;;;;;;;5055543;28;20108;-69
2022/11/18 07:01:11;;;;;;;31.42;27.05;;;;;;;;;;5055179;28;20036;-68
2022/11/18 07:03:37;;;;;;;29.40;26.08;;;;;;;;;;5052870;28;20025;-64
2022/11/18 07:06:03;;;;;;;30.63;27.33;;;;;;;;;;5054775;28;20021;-65
2022/11/18 07:08:29;;;;;;;29.73;26.52;;;;;;;;;;5055081;28;20477;-65
2022/11/18 07:10:55;;;;;;;29.90;26.13;;;;;;;;;;5054655;28;20060;-65
2022/11/18 07:13:21;;;;;;;30.27;25.70;;;;;;;;;;5053479;28;20469;-66
2022/11/18 07:15:47;;;;;;;28.92;25.90;;;;;;;;;;5054535;28;20557;-68
2022/11/18 07:18:13;;;;;;;31.77;26.73;;;;;;;;;;5070616;28;20093;-65
2022/11/18 07:20:39;;;;;;;30.65;26.50;;;;;;;;;;5070273;28;20029;-66
2022/11/18 07:23:05;;;;;;;30.23;25.77;;;;;;;;;;5054229;28;20017;-67
2022/11/18 07:25:31;;;;;;;32.75;26.80;;;;;;;;;;5069979;28;20361;-66
2022/11/18 07:27:58;;;;;;;31.45;25.63;;;;;;;;;;5070246;28;20073;-66
2022/11/18 07:30:24;;;;;;;29.67;25.83;;;;;;;;;;5069604;28;20497;-66
2022/11/18 07:32:50;;;;;;;29.92;25.92;;;;;;;;;;5069889;28;20031;-69
2022/11/18 07:35:17;;;;;;;30.30;26.63;;;;;;;;;;5069100;28;20021;-67
2022/11/18 07:37:43;;;;;;;31.05;27.65;;;;;;;;;;5069455;28;20029;-67
2022/11/18 07:40:09;;;;;;;29.10;24.75;;;;;;;;;;5054374;28;20013;-68
2022/11/18 07:42:41;;;;;;;31.45;26.85;;;;;;;;;;5069239;28;20029;-66
2022/11/18 07:45:10;;;;;;;31.52;27.05;;;;;;;;;;5067433;28;20508;-66
2022/11/18 07:47:37;;;;;;;33.22;26.45;;;;;;;;;;5052106;28;20040;-66
2022/11/18 07:50:03;;;;;;;30.30;26.83;;;;;;;;;;5052054;28;20493;-66
2022/11/18 07:52:29;;;;;;;30.00;26.45;;;;;;;;;;5054152;28;20036;-66
2022/11/18 07:54:55;;;;;;;30.75;26.60;;;;;;;;;;5051345;28;20029;-64
2022/11/18 07:57:21;;;;;;;30.60;26.13;;;;;;;;;;5052284;28;20086;-66
2022/11/18 07:59:47;;;;;;;31.70;27.30;;;;;;;;;;5053685;28;20013;-65
2022/11/18 08:02:13;;;;;;;33.03;25.88;;;;;;;;;;5053682;28;20568;-66
2022/11/18 08:04:39;;;;;;;29.27;26.15;;;;;;;;;;5052811;28;20029;-65
2022/11/18 08:07:08;;;;;;;32.63;26.45;;;;;;;;;;5053866;28;20374;-66
2022/11/18 08:09:34;;;;;;;28.70;25.67;;;;;;;;;;5053527;28;20051;-66
2022/11/18 08:12:00;;;;;;;28.20;25.20;;;;;;;;;;5053572;28;20021;-64
2022/11/18 08:14:27;;;;;;;30.88;26.33;;;;;;;;;;5051880;28;20032;-65
2022/11/18 08:16:53;;;;;;;29.65;26.20;;;;;;;;;;5053931;28;20017;-66
2022/11/18 08:19:19;;;;;;;29.73;26.52;;;;;;;;;;5053797;28;20029;-66
2022/11/18 08:21:45;;;;;;;30.83;26.80;;;;;;;;;;5053660;28;20049;-66
2022/11/18 08:24:11;;;;;;;33.83;26.83;;;;;;;;;;5052961;28;20477;-64
2022/11/18 08:26:38;;;;;;;32.60;26.63;;;;;;;;;;5053299;28;20021;-65
2022/11/18 08:29:04;;;;;;;31.30;27.58;;;;;;;;;;5053679;28;20025;-65
2022/11/18 08:31:30;;;;;;;33.50;25.42;;;;;;;;;;5053005;28;20044;-66
2022/11/18 08:33:56;;;;;;;30.13;25.83;;;;;;;;;;5052380;28;20037;-66
2022/11/18 08:36:23;;;;;;;34.10;27.80;;;;;;;;;;5053450;28;20100;-67
2022/11/18 08:38:49;;;;;;;32.85;27.50;;;;;;;;;;5052065;28;20048;-65
2022/11/18 08:41:16;;;;;;;35.00;27.50;;;;;;;;;;5051609;28;20413;-66
2022/11/18 08:43:42;;;;;;;34.67;28.05;;;;;;;;;;5051531;28;20123;-67
2022/11/18 08:46:09;;;;;;;33.72;28.38;;;;;;;;;;5052823;28;20163;-66
2022/11/18 08:48:35;;;;;;;34.63;29.33;;;;;;;;;;5050823;28;20123;-65
2022/11/18 08:51:01;;;;;;;38.60;29.67;;;;;;;;;;5052892;28;20029;-64
2022/11/18 08:53:27;;;;;;;35.20;29.85;;;;;;;;;;5050885;28;20025;-66
2022/11/18 08:55:57;;;;;;;35.60;29.55;;;;;;;;;;5051528;28;20028;-65
2022/11/18 08:58:23;;;;;;;36.15;29.08;;;;;;;;;;5053196;28;20025;-65
2022/11/18 09:00:49;;;;;;;35.47;28.70;;;;;;;;;;5051857;28;20033;-66
2022/11/18 09:03:15;;;;;;;32.85;28.77;;;;;;;;;;5051882;28;20056;-65
2022/11/18 09:05:41;;;;;;;34.60;29.05;;;;;;;;;;5051399;28;20029;-66
2022/11/18 09:08:07;;;;;;;34.38;28.88;;;;;;;;;;5050953;28;20116;-66
2022/11/18 09:10:40;;;;;;;32.47;28.83;;;;;;;;;;5069361;28;20384;-64
2022/11/18 09:13:06;;;;;;;33.78;27.35;;;;;;;;;;5068375;28;20394;-63
2022/11/18 09:15:32;;;;;;;31.20;27.17;;;;;;;;;;5068115;28;20021;-63
2022/11/18 09:17:58;;;;;;;31.08;27.67;;;;;;;;;;5068227;28;20032;-65
2022/11/18 09:20:24;;;;;;;31.92;28.02;;;;;;;;;;5069427;28;20439;-65
2022/11/18 09:22:51;;;;;;;32.20;28.73;;;;;;;;;;5061574;28;20067;-64
2022/11/18 09:25:17;;;;;;;32.72;28.77;;;;;;;;;;5048515;28;20033;-65
2022/11/18 09:27:43;;;;;;;32.20;28.50;;;;;;;;;;5048058;28;20501;-64
2022/11/18 09:30:09;;;;;;;32.08;28.58;;;;;;;;;;5047544;28;20059;-62
2022/11/18 09:32:35;;;;;;;32.40;28.88;;;;;;;;;;5047705;28;20021;-64
2022/11/18 09:35:01;;;;;;;30.30;27.13;;;;;;;;;;5048248;28;20021;-65
2022/11/18 09:37:27;;;;;;;34.63;27.40;;;;;;;;;;5058590;28;20079;-64
2022/11/18 09:39:54;;;;;;;32.20;28.30;;;;;;;;;;5067223;28;20519;-64
2022/11/18 09:42:20;;;;;;;29.90;26.67;;;;;;;;;;5068504;28;20080;-63
2022/11/18 09:45:05;;;;;;;31.55;28.20;;;;;;;;;;5066736;28;20032;-64
2022/11/18 09:47:33;;;;;;;31.27;27.35;;;;;;;;;;5068800;28;20365;-64
2022/11/18 09:50:04;;;;;;;30.33;27.02;;;;;;;;;;5065541;28;20029;-62
2022/11/18 09:52:36;;;;;;;28.60;25.50;;;;;;;;;;5048315;28;20552;-65
2022/11/18 09:55:15;;;;;;;29.48;26.35;;;;;;;;;;5046559;28;20047;-64
2022/11/18 09:57:45;;;;;;;30.85;27.58;;;;;;;;;;5047292;28;20568;-63
2022/11/18 10:00:14;;;;;;;29.55;26.23;;;;;;;;;;5048604;28;20559;-64
2022/11/18 10:02:41;;;;;;;28.63;25.45;;;;;;;;;;5048963;28;20100;-65
2022/11/18 10:05:14;;;;;;;29.10;26.00;;;;;;;;;;5048782;28;20025;-68
2022/11/18 10:07:59;;;;;;;28.83;25.75;;;;;;;;;;5047568;28;20021;-67
2022/11/18 10:10:29;;;;;;;30.58;26.35;;;;;;;;;;5046666;28;20041;-65
2022/11/18 10:12:58;;;;;;;29.05;25.50;;;;;;;;;;5058406;28;20100;-62
2022/11/18 10:15:36;;;;;;;27.95;24.20;;;;;;;;;;5067500;28;20040;-65
2022/11/18 10:18:21;;;;;;;28.50;24.25;;;;;;;;;;5064968;28;20021;-65
2022/11/18 10:21:02;;;;;;;27.80;24.80;;;;;;;;;;5060023;28;20124;-65
2022/11/18 10:23:31;;;;;;;29.50;25.20;;;;;;;;;;5052287;28;20078;-64
2022/11/18 10:25:57;;;;;;;27.83;24.55;;;;;;;;;;5053200;28;20493;-66
2022/11/18 10:28:24;;;;;;;28.17;25.10;;;;;;;;;;5053090;28;20057;-65
2022/11/18 10:30:51;;;;;;;29.85;24.33;;;;;;;;;;5052858;28;20029;-65
2022/11/18 10:33:28;;;;;;;29.02;25.83;;;;;;;;;;5052235;28;20128;-64
2022/11/18 10:36:17;;;;;;;29.33;25.00;;;;;;;;;;5054639;28;20025;-65
2022/11/18 10:38:43;;;;;;;30.88;25.05;;;;;;;;;;5053480;28;20493;-66
2022/11/18 10:41:12;;;;;;;28.60;25.05;;;;;;;;;;5052647;28;20102;-65
2022/11/18 10:43:48;;;;;;;28.45;24.08;;;;;;;;;;5052056;28;20086;-64
2022/11/18 10:46:39;;;;;;;31.15;25.27;;;;;;;;;;5041801;28;20490;-64
2022/11/18 10:49:08;;;;;;;27.98;23.73;;;;;;;;;;5033758;28;20119;-65
2022/11/18 10:51:35;;;;;;;30.33;26.17;;;;;;;;;;5032986;28;20108;-67
2022/11/18 10:54:18;;;;;;;29.45;25.23;;;;;;;;;;5032122;28;20021;-64
2022/11/18 10:56:45;;;;;;;29.58;25.23;;;;;;;;;;5032955;28;20028;-66
2022/11/18 10:59:25;;;;;;;29.55;24.58;;;;;;;;;;5033503;28;20021;-65
2022/11/18 11:02:03;;;;;;;33.28;26.08;;;;;;;;;;5035653;28;20032;-65
2022/11/18 11:04:29;;;;;;;30.87;26.70;;;;;;;;;;5033148;28;20033;-66
2022/11/18 11:06:57;;;;;;;30.10;25.48;;;;;;;;;;5031214;28;20032;-64
2022/11/18 11:09:26;;;;;;;30.58;25.55;;;;;;;;;;5031869;28;20029;-66
2022/11/18 11:11:59;;;;;;;30.10;25.75;;;;;;;;;;5035320;28;20024;-65
2022/11/18 11:14:28;;;;;;;30.38;26.98;;;;;;;;;;5052456;28;20025;-65
2022/11/18 11:16:57;;;;;;;31.60;26.42;;;;;;;;;;5054100;28;20024;-66
2022/11/18 11:19:26;;;;;;;29.48;26.00;;;;;;;;;;5053482;28;20048;-65
2022/11/18 11:21:52;;;;;;;31.35;26.75;;;;;;;;;;5051988;28;20025;-66
2022/11/18 11:24:18;;;;;;;32.03;27.00;;;;;;;;;;5052446;28;20041;-66
2022/11/18 11:26:47;;;;;;;33.55;27.58;;;;;;;;;;5053093;28;20507;-65
2022/11/18 11:29:13;;;;;;;;;;;;;;;;;;5033696;28;20089;-65
2022/11/18 11:31:45;;;;;;;32.08;27.17;;;;;;;;;;5039524;23;20428;-65
2022/11/18 11:34:11;;;;;;;32.42;27.38;;;;;;;;;;5011766;28;20026;-64
2022/11/18 11:36:52;;;;;;;32.65;27.90;;;;;;;;;;5012690;28;20109;-66
2022/11/18 11:39:36;;;;;;;33.22;27.55;;;;;;;;;;5013412;28;20109;-66
2022/11/18 11:42:04;;;;;;;34.60;27.77;;;;;;;;;;5013057;28;20022;-65
2022/11/18 11:44:49;;;;;;;32.17;26.42;;;;;;;;;;5012067;28;20347;-65
2022/11/18 11:50:22;;;;;;;32.72;28.23;;;;;;;;;;5013028;28;20048;-65
2022/11/18 11:53:06;;;;;;;31.42;27.23;;;;;;;;;;5011000;28;20172;-65
2022/11/18 11:55:48;;;;;;;30.05;26.38;;;;;;;;;;5012436;28;20092;-67
2022/11/18 11:58:32;;;;;;;36.88;26.33;;;;;;;;;;5012806;28;20041;-67
2022/11/18 12:01:19;;;;;;;32.63;25.98;;;;;;;;;;5012395;28;20032;-65
2022/11/18 12:03:46;;;;;;;33.28;27.55;;;;;;;;;;4990714;28;20065;-65
2022/11/18 12:06:13;;;;;;;38.67;32.05;;;;;;;;;;5018685;28;20025;-67
2022/11/18 12:08:46;;;;;;;34.95;27.65;;;;;;;;;;5032577;28;20034;-68
2022/11/18 12:11:20;;;;;;;34.63;27.70;;;;;;;;;;5031103;28;20108;-66
2022/11/18 12:13:53;;;;;;;31.30;26.00;;;;;;;;;;5029414;28;20032;-67
2022/11/18 12:16:25;;;;;;;31.65;25.80;;;;;;;;;;5032957;28;20094;-66
2022/11/18 12:19:06;;;;;;;33.20;27.50;;;;;;;;;;5031807;28;20068;-64
2022/11/18 12:21:43;;;;;;;32.28;25.40;;;;;;;;;;5025599;28;20053;-66
2022/11/18 12:24:31;;;;;;;31.92;26.45;;;;;;;;;;5011123;28;20048;-65
2022/11/18 12:27:11;;;;;;;32.53;26.38;;;;;;;;;;5010463;28;20026;-67
2022/11/18 12:29:42;;;;;;;29.45;23.88;;;;;;;;;;5012389;28;20494;-67
2022/11/18 12:32:28;;;;;;;28.92;23.10;;;;;;;;;;5012604;28;20034;-65
2022/11/18 12:35:12;;;;;;;26.90;22.15;;;;;;;;;;5011641;28;20364;-66
2022/11/18 12:37:58;;;;;;;24.17;21.42;;;;;;;;;;5010830;28;20092;-64
2022/11/18 12:40:38;;;;;;;25.00;20.85;;;;;;;;;;5010705;28;20488;-66
2022/11/18 12:44:07;;;;;;;26.25;21.15;;;;;;;;;;5011906;28;20487;-65
2022/11/18 12:46:08;;;;;;;23.33;19.58;;;;;;;;;;5032003;28;20083;-67
2022/11/18 12:48:37;;;;;;;24.42;20.70;;;;;;;;;;5028177;28;20045;-67
2022/11/18 12:51:03;;;;;;;25.60;19.55;;;;;;;;;;5012176;28;20053;-67
2022/11/18 12:53:37;;;;;;;25.60;19.92;;;;;;;;;;5012054;28;20068;-66
2022/11/18 12:56:21;;;;;;;23.15;18.90;;;;;;;;;;5010548;28;20482;-67
2022/11/18 12:58:48;;;;;;;23.45;18.92;;;;;;;;;;5010634;28;20048;-64
2022/11/18 13:01:17;;;;;;;27.20;20.73;;;;;;;;;;5011737;28;20025;-62
2022/11/18 13:03:43;;;;;;;21.75;18.02;;;;;;;;;;5011477;28;20025;-61
2022/11/18 13:06:26;;;;;;;25.83;19.98;;;;;;;;;;5011825;28;20073;-62
2022/11/18 13:08:54;;;;;;;23.40;18.73;;;;;;;;;;5024209;28;20033;-65
2022/11/18 13:19:35;;;;;;;23.25;18.52;;;;;;;;;;5050130;28;20120;-62
2022/11/18 13:24:51;;;;;;;23.83;18.05;;;;;;;;;;5015564;28;20043;-61
2022/11/18 13:27:24;;;;;;;24.63;18.15;;;;;;;;;;5029933;28;20075;-60
2022/11/18 13:30:05;;;;;;;22.80;17.95;;;;;;;;;;5031110;28;20125;-64
2022/11/18 13:32:31;;;;;;;21.30;16.58;;;;;;;;;;5032777;28;20025;-62
2022/11/18 13:35:17;;;;;;;25.17;16.58;;;;;;;;;;5032624;28;20056;-59
2022/11/18 13:37:51;;;;;;;25.35;16.92;;;;;;;;;;5031429;28;20022;-60
2022/11/18 13:40:23;;;;;;;22.42;16.70;;;;;;;;;;5031039;28;20021;-61
2022/11/18 13:42:50;;;;;;;23.52;17.83;;;;;;;;;;5029609;28;20535;-64
2022/11/18 13:45:16;;;;;;;22.90;16.38;;;;;;;;;;5029968;28;20030;-60
2022/11/18 13:47:46;;;;;;;22.08;15.70;;;;;;;;;;5029818;28;20397;-62
2022/11/18 13:50:12;;;;;;;21.35;16.17;;;;;;;;;;5030800;28;20117;-62
2022/11/18 13:52:38;;;;;;;22.52;16.13;;;;;;;;;;5028516;28;20053;-59
2022/11/18 13:55:12;;;;;;;22.55;16.35;;;;;;;;;;5009991;28;20547;-61
2022/11/18 13:57:38;;;;;;;22.90;16.88;;;;;;;;;;5015168;28;20331;-63
2022/11/18 14:00:06;;;;;;;20.42;15.63;;;;;;;;;;5015241;28;20121;-64
2022/11/18 14:02:37;;;;;;;21.13;16.35;;;;;;;;;;5014944;28;20030;-63
2022/11/18 14:05:03;;;;;;;20.15;15.82;;;;;;;;;;5014313;28;20025;-62
2022/11/18 14:07:29;;;;;;;21.05;16.25;;;;;;;;;;5015116;28;20037;-62
2022/11/18 14:09:57;;;;;;;20.33;15.00;;;;;;;;;;5013509;28;20030;-63
2022/11/18 14:12:27;;;;;;;21.52;16.38;;;;;;;;;;5020968;28;20053;-60
2022/11/18 14:14:53;;;;;;;21.45;16.35;;;;;;;;;;5034064;28;20013;-61
2022/11/18 14:17:19;;;;;;;21.38;15.63;;;;;;;;;;5033292;28;20043;-61
2022/11/18 14:19:46;;;;;;;21.25;16.58;;;;;;;;;;5034610;28;20030;-62
2022/11/18 14:22:17;;;;;;;20.70;15.05;;;;;;;;;;5034538;28;20362;-62
2022/11/18 14:24:43;;;;;;;22.00;17.10;;;;;;;;;;5041035;28;20029;-59
2022/11/18 14:27:33;;;;;;;21.60;16.73;;;;;;;;;;5038046;28;20075;-64
2022/11/18 14:29:59;;;;;;;20.77;15.30;;;;;;;;;;5036611;28;20057;-60
2022/11/18 14:32:28;;;;;;;20.48;15.18;;;;;;;;;;5038119;28;20040;-63
2022/11/18 14:35:00;;;;;;;19.90;15.15;;;;;;;;;;5038892;28;20029;-64
2022/11/18 14:37:26;;;;;;;21.83;16.38;;;;;;;;;;5037643;28;20099;-63
2022/11/18 14:39:56;;;;;;;21.85;16.77;;;;;;;;;;5039270;28;20025;-62
2022/11/18 14:42:22;;;;;;;22.60;17.25;;;;;;;;;;5037370;28;20033;-63
2022/11/18 14:44:48;;;;;;;22.13;16.88;;;;;;;;;;5020815;28;20188;-62
2022/11/18 14:47:35;;;;;;;22.55;16.85;;;;;;;;;;5019688;28;20040;-60
2022/11/18 14:50:01;;;;;;;21.98;16.48;;;;;;;;;;5020151;28;20017;-63
2022/11/18 14:52:27;;;;;;;21.35;15.73;;;;;;;;;;5018815;28;20025;-62
2022/11/18 14:54:53;;;;;;;20.55;15.88;;;;;;;;;;5018432;28;20022;-62
2022/11/18 14:57:19;;;;;;;20.50;15.82;;;;;;;;;;5019329;28;20040;-62
2022/11/18 14:59:45;;;;;;;19.50;14.20;;;;;;;;;;5019278;28;20025;-59